createdAt,value
2024-04-18T00:01:37.385Z,213
2024-04-18T00:06:41.544Z,213
2024-04-18T00:11:47.669Z,213
2024-04-18T00:16:49.917Z,213
2024-04-18T00:21:54.065Z,213
2024-04-18T00:26:58.266Z,213
2024-04-18T00:32:02.440Z,213
2024-04-18T00:37:06.526Z,0
2024-04-18T00:42:10.709Z,213
2024-04-18T00:47:12.985Z,213
2024-04-18T00:52:17.215Z,213
2024-04-18T00:57:21.409Z,0
2024-04-18T01:02:25.482Z,213
2024-04-18T01:07:29.645Z,0
2024-04-18T01:12:33.810Z,0
2024-04-18T01:17:38.032Z,0
2024-04-18T01:22:42.103Z,213
2024-04-18T01:27:46.284Z,213
2024-04-18T01:32:50.526Z,0
2024-04-18T01:37:54.574Z,213
2024-04-18T01:42:58.764Z,213
2024-04-18T01:48:03.124Z,213
2024-04-18T01:53:07.080Z,213
2024-04-18T01:58:11.238Z,213
2024-04-18T02:03:15.479Z,213
2024-04-18T02:08:19.563Z,213
2024-04-18T02:13:23.727Z,213
2024-04-18T02:18:28.010Z,213
2024-04-18T02:23:32.060Z,213
2024-04-18T02:28:36.234Z,213
2024-04-18T02:33:40.409Z,213
2024-04-18T02:38:44.538Z,213
2024-04-18T02:43:48.695Z,213
2024-04-18T02:48:53.147Z,213
2024-04-18T02:53:57.295Z,213
2024-04-18T02:59:01.570Z,213
2024-04-18T03:04:05.921Z,213
2024-04-18T03:09:10.060Z,213
2024-04-18T03:14:14.212Z,213
2024-04-18T03:19:18.389Z,213
2024-04-18T03:24:22.564Z,213
2024-04-18T03:29:26.645Z,213
2024-04-18T03:34:30.860Z,213
2024-04-18T03:39:35.073Z,213
2024-04-18T03:44:39.167Z,213
2024-04-18T03:49:43.326Z,213
2024-04-18T03:55:00.143Z,213
2024-04-18T03:59:51.646Z,213
2024-04-18T04:04:55.836Z,213
2024-04-18T04:09:59.991Z,213
2024-04-18T04:15:04.178Z,213
2024-04-18T04:20:08.327Z,0
2024-04-18T04:25:12.465Z,25
2024-04-18T04:30:16.675Z,33
2024-04-18T04:35:20.801Z,70
2024-04-18T04:40:24.952Z,97
2024-04-18T04:45:29.159Z,173
2024-04-18T04:50:33.277Z,240
2024-04-18T04:55:37.484Z,275
2024-04-18T05:00:41.598Z,265
2024-04-18T05:05:45.757Z,300
2024-04-18T05:10:49.949Z,324
2024-04-18T05:15:54.152Z,526
2024-04-18T05:20:58.265Z,463
2024-04-18T05:26:02.444Z,1031
2024-04-18T05:31:06.657Z,1475
2024-04-18T05:36:10.744Z,1415
2024-04-18T05:41:14.928Z,1268
2024-04-18T05:46:19.047Z,1519
2024-04-18T05:51:23.278Z,2075
2024-04-18T05:56:27.370Z,1488
2024-04-18T06:01:31.624Z,2150
2024-04-18T06:06:35.802Z,2140
2024-04-18T06:11:39.962Z,2589
2024-04-18T06:16:42.269Z,3437
2024-04-18T06:21:46.365Z,3028
2024-04-18T06:26:50.465Z,2852
2024-04-18T06:31:54.659Z,2462
2024-04-18T06:36:58.876Z,1532
2024-04-18T06:42:03.005Z,3406
2024-04-18T06:47:05.270Z,3638
2024-04-18T06:52:09.413Z,4338
2024-04-18T06:57:13.549Z,3978
2024-04-18T07:02:17.755Z,4796
2024-04-18T07:07:21.937Z,4737
2024-04-18T07:12:26.089Z,3955
2024-04-18T07:17:30.336Z,4237
2024-04-18T07:22:34.398Z,4723
2024-04-18T07:27:38.568Z,5135
2024-04-18T07:32:42.788Z,4730
2024-04-18T07:37:46.926Z,5105
2024-04-18T07:42:51.059Z,6784
2024-04-18T07:47:55.347Z,9120
2024-04-18T07:53:04.199Z,9506
2024-04-18T07:58:04.364Z,10392
2024-04-18T08:03:09.178Z,9230
2024-04-18T08:08:14.161Z,7519
2024-04-18T08:13:19.829Z,10460
2024-04-18T08:18:20.190Z,10436
2024-04-18T08:23:24.364Z,10995
2024-04-18T08:28:28.501Z,11036
2024-04-18T08:33:32.686Z,12031
2024-04-18T08:38:36.842Z,10975
2024-04-18T08:48:45.240Z,14196
2024-04-18T08:53:49.298Z,15785
2024-04-18T08:58:53.522Z,11338
2024-04-18T09:03:57.654Z,7470
2024-04-18T09:09:01.837Z,5940
2024-04-18T09:14:05.986Z,5308
2024-04-18T09:19:11.808Z,4894
2024-04-18T09:24:14.381Z,4366
2024-04-18T09:29:18.427Z,6437
2024-04-18T09:34:22.739Z,12553
2024-04-18T09:39:26.872Z,8340
2024-04-18T09:44:30.936Z,6000
2024-04-18T09:49:35.135Z,6772
2024-04-18T09:54:39.316Z,10829
2024-04-18T09:59:43.421Z,10599
2024-04-18T10:04:47.601Z,14255
2024-04-18T10:09:51.788Z,10059
2024-04-18T10:14:55.921Z,10295
2024-04-18T10:20:00.117Z,10847
2024-04-18T10:25:04.241Z,12247
2024-04-18T10:30:08.431Z,11361
2024-04-18T10:35:12.587Z,9325
2024-04-18T10:40:16.728Z,8430
2024-04-18T10:45:20.891Z,12113
2024-04-18T10:50:25.061Z,7053
2024-04-18T10:55:29.220Z,5829
2024-04-18T11:00:33.415Z,8860
2024-04-18T11:05:37.565Z,12411
2024-04-18T11:10:41.707Z,5948
2024-04-18T11:15:45.899Z,6818
2024-04-18T11:20:50.013Z,8088
2024-04-18T11:25:54.168Z,8724
2024-04-18T11:30:58.338Z,12561
2024-04-18T11:36:02.540Z,11001
2024-04-18T11:41:06.686Z,7901
2024-04-18T11:46:10.833Z,9111
2024-04-18T11:51:14.988Z,6657
2024-04-18T11:56:19.163Z,11988
2024-04-18T12:01:23.290Z,9545
2024-04-18T12:06:27.535Z,7263
2024-04-18T12:11:31.852Z,6429
2024-04-18T12:16:33.961Z,6174
2024-04-18T12:21:38.124Z,6495
2024-04-18T12:26:43.291Z,8253
2024-04-18T12:31:46.417Z,12052
2024-04-18T12:36:50.508Z,14826
2024-04-18T12:41:54.687Z,17292
2024-04-18T12:46:58.905Z,9948
2024-04-18T12:52:03.091Z,9474
2024-04-18T12:57:07.253Z,10912
2024-04-18T13:02:11.372Z,36533
2024-04-18T13:07:15.540Z,9230
2024-04-18T13:12:19.699Z,8855
2024-04-18T13:17:23.900Z,11635
2024-04-18T13:22:27.987Z,13737
2024-04-18T13:27:32.319Z,32657
2024-04-18T13:32:36.423Z,24654
2024-04-18T13:37:40.506Z,39770
2024-04-18T13:42:44.642Z,34945
2024-04-18T13:47:49.069Z,22990
2024-04-18T13:52:52.945Z,13998
2024-04-18T13:57:59.475Z,19453
2024-04-18T14:03:01.376Z,31005
2024-04-18T14:08:05.432Z,13357
2024-04-18T14:13:09.604Z,9692
2024-04-18T14:18:13.761Z,8130
2024-04-18T14:23:17.936Z,9388
2024-04-18T14:28:27.777Z,25626
2024-04-18T14:33:26.396Z,6147
2024-04-18T14:38:30.391Z,8357
2024-04-18T14:43:34.589Z,24500
2024-04-18T14:48:38.746Z,17401
2024-04-18T14:53:42.880Z,10529
2024-04-18T14:58:47.007Z,8790
2024-04-18T15:03:51.323Z,8121
2024-04-18T15:08:55.370Z,9845
2024-04-18T15:13:59.539Z,7640
2024-04-18T15:19:03.914Z,7155
2024-04-18T15:24:07.859Z,6681
2024-04-18T15:29:12.012Z,9472
2024-04-18T15:34:16.204Z,9517
2024-04-18T15:39:20.343Z,21231
2024-04-18T15:44:24.505Z,13991
2024-04-18T15:49:28.677Z,11800
2024-04-18T15:54:32.874Z,20642
2024-04-18T15:59:36.953Z,5795
2024-04-18T16:04:41.179Z,3863
2024-04-18T16:09:45.343Z,5719
2024-04-18T16:14:49.478Z,9369
2024-04-18T16:19:53.615Z,26649
2024-04-18T16:24:57.859Z,4618
2024-04-18T16:30:02.019Z,1685
2024-04-18T16:35:06.088Z,2265
2024-04-18T16:40:10.276Z,3118
2024-04-18T16:45:14.449Z,2003
2024-04-18T16:50:18.593Z,1915
2024-04-18T16:55:22.754Z,3410
2024-04-18T17:00:26.953Z,3646
2024-04-18T17:05:31.077Z,3098
2024-04-18T17:10:35.225Z,3680
2024-04-18T17:15:39.470Z,3369
2024-04-18T17:20:43.596Z,2971
2024-04-18T17:25:47.751Z,2426
2024-04-18T17:30:51.885Z,1964
2024-04-18T17:35:56.029Z,1638
2024-04-18T17:41:02.551Z,1440
2024-04-18T17:46:02.500Z,1240
2024-04-18T17:51:06.648Z,943
2024-04-18T17:56:10.812Z,730
2024-04-18T18:01:14.966Z,640
2024-04-18T18:06:19.253Z,775
2024-04-18T18:11:23.458Z,573
2024-04-18T18:16:27.436Z,384
2024-04-18T18:21:31.669Z,284
2024-04-18T18:26:35.759Z,180
2024-04-18T18:31:39.962Z,132
2024-04-18T18:36:44.137Z,85
2024-04-18T18:41:48.249Z,55
2024-04-18T18:46:52.420Z,35
2024-04-18T18:51:56.578Z,16
2024-04-18T18:57:00.761Z,8
2024-04-18T19:02:04.917Z,3
2024-04-18T19:07:09.049Z,0
2024-04-18T19:12:13.283Z,0
2024-04-18T19:17:18.027Z,0
2024-04-18T19:22:21.541Z,0
2024-04-18T19:27:25.800Z,0
2024-04-18T19:32:30.049Z,0
2024-04-18T19:37:34.061Z,0
2024-04-18T19:42:38.227Z,0
2024-04-18T19:47:42.431Z,0
2024-04-18T19:52:46.536Z,0
2024-04-18T19:57:50.746Z,0
2024-04-18T20:02:54.841Z,0
2024-04-18T20:07:58.976Z,0
2024-04-18T20:13:03.173Z,0
2024-04-18T20:18:07.382Z,0
2024-04-18T20:23:11.501Z,0
2024-04-18T20:28:15.635Z,0
2024-04-18T20:33:19.890Z,0
2024-04-18T20:38:23.987Z,0
2024-04-18T20:43:28.159Z,0
2024-04-18T20:48:32.405Z,0
2024-04-18T20:53:36.454Z,0
2024-04-18T20:58:40.648Z,0
2024-04-18T21:03:44.892Z,0
2024-04-18T21:08:48.954Z,0
2024-04-18T21:13:53.113Z,0
2024-04-18T21:18:57.343Z,0
2024-04-18T21:24:01.456Z,0
2024-04-18T21:29:05.580Z,0
2024-04-18T21:34:09.799Z,0
2024-04-18T21:39:13.940Z,0
2024-04-18T21:44:18.060Z,0
2024-04-18T21:49:22.342Z,0
2024-04-18T21:54:26.454Z,0
2024-04-18T21:59:30.571Z,0
2024-04-18T22:04:34.751Z,0
2024-04-18T22:09:38.967Z,0
2024-04-18T22:14:43.061Z,0
2024-04-18T22:19:47.277Z,0
2024-04-18T22:24:51.386Z,0
2024-04-18T22:29:55.576Z,0
2024-04-18T22:34:59.757Z,0
2024-04-18T22:40:03.886Z,0
2024-04-18T22:45:08.128Z,0
2024-04-18T22:50:12.176Z,0
2024-04-18T22:55:16.456Z,0
2024-04-18T23:00:20.709Z,0
2024-04-18T23:05:24.697Z,0
2024-04-18T23:10:28.869Z,0
2024-04-18T23:15:31.162Z,0
2024-04-18T23:20:35.268Z,0
2024-04-18T23:25:39.479Z,0
2024-04-18T23:30:43.668Z,0
2024-04-18T23:35:47.782Z,0
2024-04-18T23:40:51.941Z,0
2024-04-18T23:45:56.104Z,0
2024-04-18T23:50:58.339Z,0
2024-04-18T23:56:02.541Z,0
